sensor_id;sensor_type;location;lat;lon;timestamp;P1;durP1;ratioP1;P2;durP2;ratioP2
2956;SDS011;1488;51.548;7.222;2023-03-04T11:55:16;2.60;;;1.37;;
2956;SDS011;1488;51.548;7.222;2023-03-04T11:57:53;3.50;;;1.80;;
2956;SDS011;1488;51.548;7.222;2023-03-04T12:00:30;2.23;;;1.40;;
2956;SDS011;1488;51.548;7.222;2023-03-04T12:03:11;1.80;;;1.50;;
2956;SDS011;1488;51.548;7.222;2023-03-04T12:05:51;5.00;;;1.77;;
2956;SDS011;1488;51.548;7.222;2023-03-04T12:08:29;10.30;;;2.80;;
2956;SDS011;1488;51.548;7.222;2023-03-04T12:11:06;5.63;;;2.07;;
2956;SDS011;1488;51.548;7.222;2023-03-04T12:13:47;7.00;;;2.17;;
2956;SDS011;1488;51.548;7.222;2023-03-04T12:16:37;3.77;;;1.70;;
2956;SDS011;1488;51.548;7.222;2023-03-04T12:19:25;9.10;;;2.47;;
2956;SDS011;1488;51.548;7.222;2023-03-04T12:22:28;4.80;;;1.80;;
2956;SDS011;1488;51.548;7.222;2023-03-04T12:32:12;8.93;;;2.63;;
2956;SDS011;1488;51.548;7.222;2023-03-04T12:34:56;5.77;;;2.70;;
2956;SDS011;1488;51.548;7.222;2023-03-04T13:45:52;18.50;;;6.80;;
2956;SDS011;1488;51.548;7.222;2023-03-04T13:48:26;9.60;;;7.10;;
2956;SDS011;1488;51.548;7.222;2023-03-04T13:50:56;9.90;;;4.30;;
2956;SDS011;1488;51.548;7.222;2023-03-04T13:53:28;5.93;;;3.80;;
2956;SDS011;1488;51.548;7.222;2023-03-04T13:56:06;5.60;;;4.37;;
2956;SDS011;1488;51.548;7.222;2023-03-04T13:58:39;6.97;;;4.93;;
2956;SDS011;1488;51.548;7.222;2023-03-04T14:01:17;10.17;;;6.33;;
2956;SDS011;1488;51.548;7.222;2023-03-04T14:03:50;8.90;;;5.97;;
2956;SDS011;1488;51.548;7.222;2023-03-04T14:06:18;8.27;;;6.33;;
2956;SDS011;1488;51.548;7.222;2023-03-04T14:08:46;12.47;;;6.83;;
2956;SDS011;1488;51.548;7.222;2023-03-04T14:11:18;9.83;;;6.77;;
2956;SDS011;1488;51.548;7.222;2023-03-04T14:13:58;8.03;;;5.17;;
2956;SDS011;1488;51.548;7.222;2023-03-04T14:16:28;7.60;;;5.57;;
2956;SDS011;1488;51.548;7.222;2023-03-04T14:19:02;10.57;;;6.00;;
2956;SDS011;1488;51.548;7.222;2023-03-04T14:21:30;7.03;;;5.80;;
2956;SDS011;1488;51.548;7.222;2023-03-04T14:23:58;7.80;;;4.90;;
2956;SDS011;1488;51.548;7.222;2023-03-04T14:26:32;6.83;;;5.40;;
2956;SDS011;1488;51.548;7.222;2023-03-04T14:28:59;9.80;;;5.67;;
2956;SDS011;1488;51.548;7.222;2023-03-04T14:31:27;7.37;;;5.00;;
2956;SDS011;1488;51.548;7.222;2023-03-04T14:33:57;6.50;;;5.37;;
2956;SDS011;1488;51.548;7.222;2023-03-04T14:36:27;6.10;;;4.37;;
2956;SDS011;1488;51.548;7.222;2023-03-04T14:38:58;11.03;;;5.47;;
2956;SDS011;1488;51.548;7.222;2023-03-04T14:41:27;5.63;;;4.47;;
2956;SDS011;1488;51.548;7.222;2023-03-04T14:44:00;6.20;;;4.50;;
2956;SDS011;1488;51.548;7.222;2023-03-04T14:46:33;4.63;;;4.23;;
2956;SDS011;1488;51.548;7.222;2023-03-04T14:49:10;7.60;;;4.53;;
2956;SDS011;1488;51.548;7.222;2023-03-04T14:51:41;5.37;;;4.03;;
2956;SDS011;1488;51.548;7.222;2023-03-04T14:54:24;5.87;;;4.30;;
2956;SDS011;1488;51.548;7.222;2023-03-04T14:56:55;5.60;;;4.10;;
2956;SDS011;1488;51.548;7.222;2023-03-04T14:59:31;4.90;;;4.10;;
2956;SDS011;1488;51.548;7.222;2023-03-04T15:02:13;6.93;;;4.20;;
2956;SDS011;1488;51.548;7.222;2023-03-04T15:04:49;4.77;;;3.40;;
2956;SDS011;1488;51.548;7.222;2023-03-04T15:07:17;7.47;;;3.83;;
2956;SDS011;1488;51.548;7.222;2023-03-04T15:09:50;4.53;;;3.63;;
2956;SDS011;1488;51.548;7.222;2023-03-04T15:12:23;9.37;;;3.67;;
2956;SDS011;1488;51.548;7.222;2023-03-04T15:14:54;7.07;;;3.73;;
2956;SDS011;1488;51.548;7.222;2023-03-04T15:17:26;5.50;;;3.80;;
2956;SDS011;1488;51.548;7.222;2023-03-04T15:19:59;4.20;;;3.80;;
2956;SDS011;1488;51.548;7.222;2023-03-04T15:22:28;4.90;;;3.90;;
2956;SDS011;1488;51.548;7.222;2023-03-04T15:24:55;3.43;;;3.03;;
2956;SDS011;1488;51.548;7.222;2023-03-04T15:27:23;3.17;;;2.87;;
2956;SDS011;1488;51.548;7.222;2023-03-04T15:29:51;4.03;;;3.50;;
2956;SDS011;1488;51.548;7.222;2023-03-04T15:32:21;3.93;;;2.83;;
2956;SDS011;1488;51.548;7.222;2023-03-04T15:34:48;3.03;;;2.73;;
2956;SDS011;1488;51.548;7.222;2023-03-04T15:37:17;5.20;;;3.20;;
2956;SDS011;1488;51.548;7.222;2023-03-04T15:39:46;4.70;;;2.97;;
2956;SDS011;1488;51.548;7.222;2023-03-04T15:42:13;3.50;;;2.90;;
2956;SDS011;1488;51.548;7.222;2023-03-04T15:44:42;4.60;;;3.10;;
2956;SDS011;1488;51.548;7.222;2023-03-04T15:47:27;11.97;;;2.93;;
2956;SDS011;1488;51.548;7.222;2023-03-04T19:41:58;6.80;;;1.93;;
2956;SDS011;1488;51.548;7.222;2023-03-04T19:44:24;5.67;;;2.87;;
2956;SDS011;1488;51.548;7.222;2023-03-04T19:46:51;4.00;;;2.40;;
2956;SDS011;1488;51.548;7.222;2023-03-04T19:49:20;6.90;;;2.87;;
2956;SDS011;1488;51.548;7.222;2023-03-04T19:51:47;6.67;;;2.10;;
2956;SDS011;1488;51.548;7.222;2023-03-04T19:54:15;7.07;;;1.97;;
2956;SDS011;1488;51.548;7.222;2023-03-04T19:56:42;3.80;;;1.80;;
2956;SDS011;1488;51.548;7.222;2023-03-04T19:59:15;4.23;;;1.90;;
2956;SDS011;1488;51.548;7.222;2023-03-04T20:01:42;6.60;;;2.13;;
2956;SDS011;1488;51.548;7.222;2023-03-04T20:04:24;4.70;;;1.93;;
2956;SDS011;1488;51.548;7.222;2023-03-04T20:06:51;4.83;;;1.90;;
2956;SDS011;1488;51.548;7.222;2023-03-04T20:09:19;7.50;;;2.27;;
2956;SDS011;1488;51.548;7.222;2023-03-04T20:11:48;2.70;;;1.93;;
2956;SDS011;1488;51.548;7.222;2023-03-04T20:14:16;3.10;;;1.50;;
2956;SDS011;1488;51.548;7.222;2023-03-04T20:16:43;8.63;;;2.10;;
2956;SDS011;1488;51.548;7.222;2023-03-04T20:19:12;11.90;;;2.83;;
2956;SDS011;1488;51.548;7.222;2023-03-04T20:21:39;5.63;;;1.80;;
2956;SDS011;1488;51.548;7.222;2023-03-04T20:26:31;2.70;;;1.50;;
2956;SDS011;1488;51.548;7.222;2023-03-04T20:28:58;5.83;;;2.30;;
2956;SDS011;1488;51.548;7.222;2023-03-04T20:31:30;2.90;;;1.80;;
2956;SDS011;1488;51.548;7.222;2023-03-04T20:34:01;3.47;;;2.23;;
2956;SDS011;1488;51.548;7.222;2023-03-04T20:36:28;4.67;;;2.27;;
2956;SDS011;1488;51.548;7.222;2023-03-04T20:38:59;2.97;;;2.00;;
2956;SDS011;1488;51.548;7.222;2023-03-04T20:41:29;4.33;;;2.10;;
2956;SDS011;1488;51.548;7.222;2023-03-04T20:43:57;3.30;;;2.50;;
2956;SDS011;1488;51.548;7.222;2023-03-04T20:46:26;4.33;;;2.60;;
2956;SDS011;1488;51.548;7.222;2023-03-04T20:49:12;7.17;;;1.77;;
2956;SDS011;1488;51.548;7.222;2023-03-04T20:51:48;2.73;;;1.80;;
2956;SDS011;1488;51.548;7.222;2023-03-04T20:54:18;6.47;;;1.73;;
2956;SDS011;1488;51.548;7.222;2023-03-04T20:56:48;4.00;;;2.13;;
2956;SDS011;1488;51.548;7.222;2023-03-04T20:59:18;6.77;;;2.23;;
2956;SDS011;1488;51.548;7.222;2023-03-04T21:01:47;2.40;;;2.00;;
2956;SDS011;1488;51.548;7.222;2023-03-04T21:04:14;2.67;;;1.97;;
2956;SDS011;1488;51.548;7.222;2023-03-04T21:06:42;3.57;;;2.00;;
2956;SDS011;1488;51.548;7.222;2023-03-04T21:09:12;2.57;;;1.40;;
2956;SDS011;1488;51.548;7.222;2023-03-04T21:11:48;2.40;;;1.80;;
2956;SDS011;1488;51.548;7.222;2023-03-04T21:14:24;4.63;;;2.27;;
2956;SDS011;1488;51.548;7.222;2023-03-04T21:17:01;2.90;;;1.80;;
2956;SDS011;1488;51.548;7.222;2023-03-04T21:19:40;4.77;;;2.47;;
2956;SDS011;1488;51.548;7.222;2023-03-04T21:22:10;3.80;;;1.77;;
2956;SDS011;1488;51.548;7.222;2023-03-04T21:24:40;2.30;;;1.83;;
2956;SDS011;1488;51.548;7.222;2023-03-04T21:27:24;2.17;;;1.47;;
2956;SDS011;1488;51.548;7.222;2023-03-04T21:29:52;3.77;;;2.07;;
2956;SDS011;1488;51.548;7.222;2023-03-04T21:32:24;2.83;;;1.60;;
2956;SDS011;1488;51.548;7.222;2023-03-04T21:37:56;5.23;;;2.23;;
2956;SDS011;1488;51.548;7.222;2023-03-04T21:40:26;3.57;;;2.13;;
2956;SDS011;1488;51.548;7.222;2023-03-04T21:42:55;2.40;;;1.73;;
2956;SDS011;1488;51.548;7.222;2023-03-04T21:45:24;5.10;;;1.80;;
2956;SDS011;1488;51.548;7.222;2023-03-04T21:47:57;2.33;;;1.90;;
2956;SDS011;1488;51.548;7.222;2023-03-04T21:50:27;5.10;;;1.47;;
2956;SDS011;1488;51.548;7.222;2023-03-04T21:52:59;5.13;;;2.00;;
2956;SDS011;1488;51.548;7.222;2023-03-04T21:55:28;2.27;;;2.07;;
2956;SDS011;1488;51.548;7.222;2023-03-04T21:58:00;1.97;;;1.50;;
2956;SDS011;1488;51.548;7.222;2023-03-04T22:00:30;2.27;;;1.80;;
2956;SDS011;1488;51.548;7.222;2023-03-04T22:02:58;3.63;;;2.17;;
2956;SDS011;1488;51.548;7.222;2023-03-04T22:05:25;3.40;;;1.40;;
2956;SDS011;1488;51.548;7.222;2023-03-04T22:08:00;2.27;;;2.07;;
2956;SDS011;1488;51.548;7.222;2023-03-04T22:10:27;3.10;;;1.40;;
2956;SDS011;1488;51.548;7.222;2023-03-04T22:12:57;3.77;;;1.43;;
2956;SDS011;1488;51.548;7.222;2023-03-04T22:15:33;6.67;;;2.00;;
2956;SDS011;1488;51.548;7.222;2023-03-04T22:18:02;4.53;;;1.40;;
2956;SDS011;1488;51.548;7.222;2023-03-04T22:20:37;2.00;;;1.40;;
2956;SDS011;1488;51.548;7.222;2023-03-04T22:23:06;3.83;;;1.27;;
2956;SDS011;1488;51.548;7.222;2023-03-04T22:25:35;2.17;;;1.47;;
2956;SDS011;1488;51.548;7.222;2023-03-04T22:28:06;1.83;;;1.43;;
2956;SDS011;1488;51.548;7.222;2023-03-04T22:30:36;3.63;;;1.87;;
2956;SDS011;1488;51.548;7.222;2023-03-04T22:33:10;3.80;;;1.60;;
2956;SDS011;1488;51.548;7.222;2023-03-04T22:35:50;1.60;;;1.40;;
2956;SDS011;1488;51.548;7.222;2023-03-04T22:38:20;1.70;;;1.47;;
2956;SDS011;1488;51.548;7.222;2023-03-04T22:40:50;1.70;;;1.30;;
2956;SDS011;1488;51.548;7.222;2023-03-04T22:43:22;2.80;;;1.30;;
2956;SDS011;1488;51.548;7.222;2023-03-04T22:45:49;1.80;;;1.40;;
2956;SDS011;1488;51.548;7.222;2023-03-04T22:48:25;2.40;;;1.73;;
2956;SDS011;1488;51.548;7.222;2023-03-04T22:50:55;1.60;;;1.30;;
2956;SDS011;1488;51.548;7.222;2023-03-04T22:53:22;2.07;;;1.47;;
2956;SDS011;1488;51.548;7.222;2023-03-04T22:55:55;2.33;;;1.47;;
2956;SDS011;1488;51.548;7.222;2023-03-04T22:58:26;2.67;;;1.70;;
2956;SDS011;1488;51.548;7.222;2023-03-04T23:00:54;2.70;;;1.63;;
2956;SDS011;1488;51.548;7.222;2023-03-04T23:03:31;2.80;;;1.33;;
2956;SDS011;1488;51.548;7.222;2023-03-04T23:06:05;2.07;;;1.30;;
2956;SDS011;1488;51.548;7.222;2023-03-04T23:08:34;1.80;;;1.40;;
2956;SDS011;1488;51.548;7.222;2023-03-04T23:11:12;3.67;;;1.20;;
2956;SDS011;1488;51.548;7.222;2023-03-04T23:13:40;2.00;;;1.27;;
2956;SDS011;1488;51.548;7.222;2023-03-04T23:16:10;4.37;;;1.50;;
2956;SDS011;1488;51.548;7.222;2023-03-04T23:18:39;1.70;;;1.30;;
2956;SDS011;1488;51.548;7.222;2023-03-04T23:21:11;2.63;;;1.50;;
2956;SDS011;1488;51.548;7.222;2023-03-04T23:23:41;1.43;;;1.33;;
2956;SDS011;1488;51.548;7.222;2023-03-04T23:26:12;4.20;;;1.50;;
2956;SDS011;1488;51.548;7.222;2023-03-04T23:28:44;1.60;;;1.07;;
2956;SDS011;1488;51.548;7.222;2023-03-04T23:31:14;1.67;;;1.50;;
2956;SDS011;1488;51.548;7.222;2023-03-04T23:33:46;2.33;;;1.30;;
2956;SDS011;1488;51.548;7.222;2023-03-04T23:36:17;2.07;;;1.73;;
2956;SDS011;1488;51.548;7.222;2023-03-04T23:38:44;1.93;;;1.37;;
2956;SDS011;1488;51.548;7.222;2023-03-04T23:41:21;2.10;;;1.30;;
2956;SDS011;1488;51.548;7.222;2023-03-04T23:44:03;3.23;;;1.20;;
2956;SDS011;1488;51.548;7.222;2023-03-04T23:46:30;2.67;;;1.43;;
2956;SDS011;1488;51.548;7.222;2023-03-04T23:48:59;1.50;;;1.10;;
2956;SDS011;1488;51.548;7.222;2023-03-04T23:51:27;3.30;;;1.27;;
2956;SDS011;1488;51.548;7.222;2023-03-04T23:53:54;1.13;;;1.00;;
2956;SDS011;1488;51.548;7.222;2023-03-04T23:56:23;2.37;;;1.40;;
2956;SDS011;1488;51.548;7.222;2023-03-04T23:58:51;2.23;;;1.47;;
